Time;durP1;ratioP1;P1;durP2;ratioP2;P2;SDS_P1;SDS_P2;PMS_P1;PMS_P2;Temp;Humidity;BMP_temperature;BMP_pressure;BME280_temperature;BME280_humidity;BME280_pressure;Samples;Min_cycle;Max_cycle;Signal;HPM_P1;HPM_P2
2023/09/20 00:01:07;;;;;;;13.77;9.93;;;;;;;-141.97;62.45;47374.94;5012926;28;20162;-81
2023/09/20 00:03:33;;;;;;;14.50;9.73;;;;;;;-141.97;62.70;47492.16;5011488;28;20167;-81
2023/09/20 00:06:00;;;;;;;12.87;9.40;;;;;;;-141.97;62.78;47411.44;5013130;28;20222;-82
2023/09/20 00:08:26;;;;;;;11.77;9.40;;;;;;;-141.97;63.00;47467.19;5012436;28;20288;-82
2023/09/20 00:10:51;;;;;;;15.93;9.60;;;;;;;-141.97;62.48;47544.06;5013486;28;20606;-81
2023/09/20 00:13:17;;;;;;;15.57;9.80;;;;;;;-141.97;61.89;47511.38;5011983;28;20222;-81
2023/09/20 00:15:42;;;;;;;15.70;9.57;;;;;;;-141.97;61.19;47484.47;5011982;28;20209;-81
2023/09/20 00:18:09;;;;;;;13.63;9.67;;;;;;;-141.97;61.04;47534.44;5011925;28;20220;-82
2023/09/20 00:20:35;;;;;;;12.17;9.23;;;;;;;-141.97;61.02;47526.75;5011755;28;20619;-81
2023/09/20 00:23:02;;;;;;;16.07;9.60;;;;;;;-141.97;60.97;47399.91;5011793;28;20171;-81
2023/09/20 00:25:28;;;;;;;15.50;9.67;;;;;;;-141.97;61.08;47388.38;5013336;28;20624;-81
2023/09/20 00:27:53;;;;;;;12.40;8.90;;;;;;;-141.97;60.61;47559.44;5013131;28;20233;-82
2023/09/20 00:30:19;;;;;;;14.60;9.10;;;;;;;-141.97;60.12;47449.88;5013286;28;20540;-82
2023/09/20 00:32:45;;;;;;;13.43;9.50;;;;;;;-141.97;59.48;47311.50;5020395;28;20658;-83
2023/09/20 00:35:16;;;;;;;13.43;9.10;;;;;;;-141.97;59.31;47522.91;4993410;28;20170;-82
2023/09/20 00:37:44;;;;;;;14.00;9.33;;;;;;;-141.97;59.20;47513.31;5024793;28;20182;-82
2023/09/20 00:40:16;;;;;;;14.20;9.10;;;;;;;-141.97;59.41;47522.91;5024646;28;20175;-82
2023/09/20 00:42:46;;;;;;;12.13;9.07;;;;;;;-141.97;59.71;47524.84;4993214;28;20195;-82
2023/09/20 00:45:15;;;;;;;14.30;9.37;;;;;;;-141.97;59.58;47657.47;5024563;28;20227;-82
2023/09/20 00:47:51;;;;;;;13.00;9.20;;;;;;;-141.97;59.41;47353.78;4992045;28;20175;-82
2023/09/20 00:50:17;;;;;;;14.37;9.10;;;;;;;-141.97;59.51;47649.78;4993285;28;20163;-82
2023/09/20 00:52:44;;;;;;;15.43;9.33;;;;;;;-141.97;59.46;47511.38;4992950;28;20168;-82
2023/09/20 00:55:15;;;;;;;12.47;9.10;;;;;;;-141.97;59.75;47469.09;5024612;28;20647;-82
2023/09/20 00:57:45;;;;;;;13.47;9.37;;;;;;;-141.97;60.16;47403.75;4991554;28;20182;-82
2023/09/20 01:00:21;;;;;;;15.07;9.90;;;;;;;-141.97;60.34;47321.13;4991573;28;20660;-82
2023/09/20 01:02:51;;;;;;;13.93;9.00;;;;;;;-141.97;60.07;47442.19;4992854;28;20577;-83
2023/09/20 01:05:21;;;;;;;15.83;9.47;;;;;;;-141.97;60.10;47532.53;4992878;28;20253;-82
2023/09/20 01:07:49;;;;;;;12.70;9.50;;;;;;;-141.97;60.35;47505.63;5007846;28;20565;-83
2023/09/20 01:10:14;;;;;;;15.57;9.23;;;;;;;-141.97;60.55;47526.75;4992842;28;20164;-82
2023/09/20 01:12:40;;;;;;;14.67;9.23;;;;;;;-141.97;60.64;47615.19;5024073;28;20292;-82
2023/09/20 01:15:07;;;;;;;16.27;10.47;;;;;;;-141.97;60.41;47459.50;4994152;28;20598;-83
2023/09/20 01:17:43;;;;;;;15.00;10.03;;;;;;;-141.97;60.97;47670.91;4990993;28;20251;-82
2023/09/20 01:20:12;;;;;;;18.57;10.00;;;;;;;-141.97;61.21;47476.78;4991318;28;20189;-84
2023/09/20 01:22:38;;;;;;;14.97;10.30;;;;;;;-141.97;61.35;47538.28;4992671;28;20242;-83
2023/09/20 01:25:11;;;;;;;12.43;9.23;;;;;;;-141.97;61.68;47446.03;4991314;28;20633;-83
2023/09/20 01:27:39;;;;;;;12.93;9.33;;;;;;;-141.97;61.52;47507.53;4992764;28;20171;-83
2023/09/20 01:30:05;;;;;;;14.37;9.60;;;;;;;-141.97;62.00;47436.44;4991417;28;20258;-82
2023/09/20 01:32:31;;;;;;;13.37;9.37;;;;;;;-141.97;62.05;47536.38;5007444;28;20221;-82
2023/09/20 01:34:56;;;;;;;15.70;9.53;;;;;;;-141.97;61.85;47446.03;4990815;28;20175;-82
2023/09/20 01:37:22;;;;;;;13.37;9.37;;;;;;;-141.97;61.81;47346.09;5000464;28;20694;-82
2023/09/20 01:39:47;;;;;;;13.87;9.27;;;;;;;-141.97;60.99;47353.78;5011612;28;20171;-82
2023/09/20 01:42:15;;;;;;;14.00;10.20;;;;;;;-141.97;61.50;47590.19;5011604;28;20260;-82
2023/09/20 01:44:41;;;;;;;15.50;9.90;;;;;;;-141.97;61.21;47388.38;5010699;28;20175;-83
2023/09/20 01:47:06;;;;;;;16.37;10.43;;;;;;;-141.97;61.25;47547.91;5017625;28;20198;-82
2023/09/20 01:49:32;;;;;;;17.17;10.80;;;;;;;-141.97;61.48;47426.81;5046792;28;20178;-82
2023/09/20 01:51:58;;;;;;;21.17;11.07;;;;;;;-141.97;62.06;47522.91;5010667;28;20254;-82
2023/09/20 01:54:28;;;;;;;18.77;11.10;;;;;;;-141.97;62.29;47526.75;5010979;28;20226;-82
2023/09/20 01:56:55;;;;;;;18.47;11.27;;;;;;;-141.97;62.68;47382.63;5010614;28;20163;-83
2023/09/20 01:59:21;;;;;;;17.50;11.53;;;;;;;-141.97;62.78;47426.81;5049224;28;20187;-82
2023/09/20 02:01:48;;;;;;;23.17;10.63;;;;;;;-141.97;62.68;47530.59;5014392;28;20614;-82
2023/09/20 02:04:15;;;;;;;18.23;10.90;;;;;;;-141.97;62.24;47534.44;5023534;28;20159;-82
2023/09/20 02:06:41;;;;;;;17.50;10.73;;;;;;;-141.97;62.16;47346.09;5025513;28;20234;-79
2023/09/20 02:09:06;;;;;;;18.20;10.47;;;;;;;-141.97;61.84;47576.75;5011605;28;20619;-81
2023/09/20 02:11:31;;;;;;;17.03;11.00;;;;;;;-141.97;61.34;47526.75;5016129;28;20281;-81
2023/09/20 02:13:57;;;;;;;16.20;10.33;;;;;;;-141.97;60.91;47553.69;5021891;28;20182;-82
2023/09/20 02:16:22;;;;;;;19.57;11.40;;;;;;;-141.97;60.68;47544.06;5013988;28;20523;-82
2023/09/20 02:18:48;;;;;;;23.07;13.53;;;;;;;-141.97;62.20;47507.53;5012433;28;20170;-81
2023/09/20 02:21:14;;;;;;;22.93;13.90;;;;;;;-141.97;61.85;47430.66;4997353;28;20195;-82
2023/09/20 02:23:39;;;;;;;18.93;12.90;;;;;;;-141.97;62.40;47680.53;4986365;28;20175;-83
2023/09/20 02:26:05;;;;;;;22.93;12.63;;;;;;;-141.97;62.48;47519.06;5025155;28;20210;-84
2023/09/20 02:28:31;;;;;;;20.20;13.07;;;;;;;-141.97;62.72;47490.25;4992776;28;20353;-84
2023/09/20 02:30:57;;;;;;;23.30;13.57;;;;;;;-141.97;62.80;47349.94;4992231;28;20595;-83
2023/09/20 02:33:22;;;;;;;22.37;12.33;;;;;;;-141.97;63.18;47669.00;5007172;28;20317;-83
2023/09/20 02:35:48;;;;;;;26.03;14.40;;;;;;;-141.97;63.46;47513.31;4990327;28;20167;-84
2023/09/20 02:38:13;;;;;;;27.43;15.23;;;;;;;-141.97;63.10;47574.81;4985560;28;20562;-82
2023/09/20 02:40:39;;;;;;;22.13;12.90;;;;;;;-141.97;63.47;47555.59;4992887;28;20562;-82
2023/09/20 02:43:08;;;;;;;22.23;12.70;;;;;;;-141.97;63.66;47718.97;4992726;28;20655;-84
2023/09/20 02:45:34;;;;;;;32.00;16.47;;;;;;;-141.97;63.59;47376.84;5009983;28;20201;-83
2023/09/20 02:48:04;;;;;;;30.87;13.87;;;;;;;-141.97;63.24;47561.38;4994681;28;20274;-82
2023/09/20 02:50:29;;;;;;;27.73;13.40;;;;;;;-141.97;63.38;47670.91;4990191;28;20334;-83
2023/09/20 02:52:56;;;;;;;23.03;13.07;;;;;;;-141.97;64.43;47665.16;5021388;28;20218;-82
2023/09/20 02:55:23;;;;;;;27.63;13.10;;;;;;;-141.97;64.71;47538.28;5014207;28;20180;-83
2023/09/20 02:57:50;;;;;;;23.17;13.53;;;;;;;-141.97;64.97;47540.22;5042665;28;20171;-84
2023/09/20 03:00:21;;;;;;;22.57;13.67;;;;;;;-141.97;64.84;47590.19;5001995;28;20179;-83
2023/09/20 03:02:52;;;;;;;22.47;13.07;;;;;;;-141.97;65.52;47530.59;4997187;28;20171;-84
2023/09/20 03:05:21;;;;;;;26.83;13.17;;;;;;;-141.97;65.59;47449.88;4993677;28;20192;-83
2023/09/20 03:07:48;;;;;;;23.70;13.43;;;;;;;-141.97;66.07;47647.84;4991643;28;20174;-83
2023/09/20 03:10:15;;;;;;;25.80;13.80;;;;;;;-141.97;66.07;47432.59;4991404;28;20175;-82
2023/09/20 03:12:44;;;;;;;27.77;15.40;;;;;;;-141.97;65.69;47705.53;4991012;28;20215;-82
2023/09/20 03:15:11;;;;;;;27.57;14.40;;;;;;;-141.97;65.53;47503.69;4990255;28;20201;-83
2023/09/20 03:17:40;;;;;;;25.90;14.60;;;;;;;-141.97;65.31;47521.00;5007655;28;20690;-84
2023/09/20 03:20:25;;;;;;;25.00;14.33;;;;;;;-141.97;65.61;47476.78;4990760;28;20325;-81
2023/09/20 03:22:55;;;;;;;22.40;13.90;;;;;;;-141.97;66.07;47726.66;4989449;28;20187;-82
2023/09/20 03:25:28;;;;;;;24.37;14.63;;;;;;;-141.97;66.37;47557.53;4989984;28;20285;-81
2023/09/20 03:27:55;;;;;;;30.57;15.73;;;;;;;-141.97;66.30;47542.16;5005862;28;20175;-82
2023/09/20 03:30:20;;;;;;;29.97;15.47;;;;;;;-141.97;66.51;47459.50;4990363;28;20211;-84
2023/09/20 03:32:46;;;;;;;32.27;15.33;;;;;;;-141.97;66.55;47499.84;4991388;28;20564;-82
2023/09/20 03:35:13;;;;;;;32.07;14.70;;;;;;;-141.97;66.33;47457.56;4991136;28;20160;-82
2023/09/20 03:37:43;;;;;;;43.17;14.83;;;;;;;-141.97;66.60;47540.22;4991037;28;20187;-83
2023/09/20 03:40:16;;;;;;;34.47;14.43;;;;;;;-141.97;66.48;47517.16;4993757;28;20659;-83
2023/09/20 03:42:42;;;;;;;29.77;13.80;;;;;;;-141.97;66.29;47547.91;4994273;28;20175;-83
2023/09/20 03:45:10;;;;;;;32.57;12.93;;;;;;;-141.97;65.79;47553.69;4994808;28;20688;-83
2023/09/20 03:47:36;;;;;;;23.67;12.20;;;;;;;-141.97;65.67;47542.16;4993508;28;20207;-83
2023/09/20 03:50:03;;;;;;;31.67;12.87;;;;;;;-141.97;65.52;47432.59;5019381;28;20179;-82
2023/09/20 03:52:29;;;;;;;36.27;13.23;;;;;;;-141.97;65.60;47538.28;4994097;28;20273;-83
2023/09/20 03:54:55;;;;;;;29.10;13.20;;;;;;;-141.97;66.02;47369.16;4992683;28;20236;-83
2023/09/20 03:57:24;;;;;;;29.20;13.40;;;;;;;-141.97;66.22;47394.16;5007443;28;20666;-83
2023/09/20 03:59:51;;;;;;;33.57;14.43;;;;;;;-141.97;66.36;47438.34;5014044;28;20194;-83
2023/09/20 04:02:17;;;;;;;33.77;13.60;;;;;;;-141.97;66.07;47517.16;5001319;28;20171;-83
2023/09/20 04:04:42;;;;;;;34.73;15.17;;;;;;;-141.97;65.99;47738.19;4994441;28;20193;-82
2023/09/20 04:07:07;;;;;;;32.50;16.70;;;;;;;-141.97;65.84;47386.47;4994734;28;20187;-82
2023/09/20 04:09:35;;;;;;;33.07;16.30;;;;;;;-141.97;65.64;47670.91;4996958;28;20246;-84
2023/09/20 04:12:01;;;;;;;30.20;15.23;;;;;;;-141.97;65.76;47553.69;4998820;28;20301;-83
2023/09/20 04:14:26;;;;;;;32.70;14.80;;;;;;;-141.97;65.92;47570.97;4999990;28;20171;-79
2023/09/20 04:16:53;;;;;;;45.30;17.60;;;;;;;-141.97;65.99;47563.28;4996474;28;20614;-80
2023/09/20 04:19:20;;;;;;;33.23;13.90;;;;;;;-141.97;66.63;47472.94;4995084;28;20166;-80
2023/09/20 04:21:46;;;;;;;37.97;15.07;;;;;;;-141.97;67.01;47547.91;5003352;28;20182;-80
2023/09/20 04:24:11;;;;;;;52.80;19.20;;;;;;;-141.97;67.00;47396.06;5030460;28;20171;-80
2023/09/20 04:26:36;;;;;;;52.13;20.60;;;;;;;-141.97;67.14;47444.13;4994962;28;20679;-80
2023/09/20 04:29:02;;;;;;;52.57;22.80;;;;;;;-141.97;66.99;47553.69;4993020;28;20191;-80
2023/09/20 04:31:28;;;;;;;56.77;22.87;;;;;;;-141.97;66.62;47505.63;4993793;28;20471;-81
2023/09/20 04:33:54;;;;;;;51.47;18.77;;;;;;;-141.97;66.71;47557.53;5009111;28;20172;-80
2023/09/20 04:36:19;;;;;;;50.27;18.17;;;;;;;-141.97;66.85;47422.97;4994602;28;20164;-81
2023/09/20 04:38:44;;;;;;;40.67;15.47;;;;;;;-141.97;67.33;47578.66;4993989;28;20644;-80
2023/09/20 04:41:14;;;;;;;48.20;16.33;;;;;;;-141.97;67.03;47580.59;4992183;28;20198;-80
2023/09/20 04:43:39;;;;;;;38.13;14.53;;;;;;;-141.97;67.39;47451.81;4993925;28;20166;-81
2023/09/20 04:46:06;;;;;;;35.23;14.17;;;;;;;-141.97;67.48;47557.53;5008594;28;20194;-80
2023/09/20 04:48:31;;;;;;;41.47;14.10;;;;;;;-141.97;67.35;47707.44;5013872;28;20163;-83
2023/09/20 04:50:57;;;;;;;29.20;13.67;;;;;;;-141.97;67.56;47565.22;5013326;28;20217;-81
2023/09/20 04:53:23;;;;;;;30.13;12.40;;;;;;;-141.97;67.87;47480.63;4994458;28;20171;-81
2023/09/20 04:55:49;;;;;;;29.27;12.70;;;;;;;-141.97;67.84;47472.94;4991867;28;20175;-81
2023/09/20 04:58:17;;;;;;;27.77;12.33;;;;;;;-141.97;67.32;47642.09;4993006;28;20531;-81
2023/09/20 05:00:43;;;;;;;27.63;12.13;;;;;;;-141.97;67.08;47572.91;4992756;28;20163;-81
2023/09/20 05:03:11;;;;;;;29.90;13.00;;;;;;;-141.97;66.43;47536.38;4992514;28;20256;-81
2023/09/20 05:05:36;;;;;;;25.03;12.37;;;;;;;-141.97;65.95;47463.34;4992717;28;20195;-81
2023/09/20 05:08:03;;;;;;;26.97;11.90;;;;;;;-141.97;65.60;47584.44;4993048;28;20259;-82
2023/09/20 05:10:29;;;;;;;29.07;12.00;;;;;;;-141.97;65.46;47742.03;4992381;28;20628;-82
2023/09/20 05:12:54;;;;;;;33.03;12.43;;;;;;;-141.97;65.16;47584.44;5026158;28;20365;-80
2023/09/20 05:15:21;;;;;;;30.03;12.97;;;;;;;-141.97;64.77;47438.34;5009483;28;20220;-81
2023/09/20 05:17:49;;;;;;;35.67;15.70;;;;;;;-141.97;64.83;47419.13;5008479;28;20171;-80
2023/09/20 05:20:14;;;;;;;39.27;16.57;;;;;;;-141.97;66.45;47611.34;4993359;28;20163;-81
2023/09/20 05:22:40;;;;;;;24.17;12.73;;;;;;;-141.97;67.59;47551.75;4992005;28;20167;-80
2023/09/20 05:25:07;;;;;;;26.27;14.23;;;;;;;-141.97;67.41;47484.47;4991258;28;20628;-81
2023/09/20 05:27:33;;;;;;;24.83;13.20;;;;;;;-141.97;66.94;47530.59;4991055;28;20180;-80
2023/09/20 05:29:58;;;;;;;30.97;14.03;;;;;;;-141.97;67.70;47494.09;4992677;28;20604;-80
2023/09/20 05:32:24;;;;;;;23.60;13.93;;;;;;;-141.97;66.77;47449.88;5007066;28;20197;-80
2023/09/20 05:34:50;;;;;;;22.20;11.90;;;;;;;-141.97;66.26;47542.16;4992265;28;20216;-81
2023/09/20 05:37:15;;;;;;;21.67;13.00;;;;;;;-141.97;65.31;47476.78;4992276;28;20159;-81
2023/09/20 05:39:43;;;;;;;27.17;13.73;;;;;;;-141.97;64.70;47507.53;4992850;28;20171;-81
2023/09/20 05:42:09;;;;;;;25.87;13.57;;;;;;;-141.97;65.27;47561.38;4994987;28;20664;-81
2023/09/20 05:44:36;;;;;;;20.53;13.50;;;;;;;-141.97;64.75;47542.16;5009359;28;20175;-82
2023/09/20 05:47:04;;;;;;;21.87;13.33;;;;;;;-141.97;63.92;47546.00;4992577;28;20226;-82
2023/09/20 05:49:31;;;;;;;24.33;13.13;;;;;;;-141.97;63.52;47496.00;4992218;28;20203;-81
2023/09/20 05:51:56;;;;;;;24.80;13.87;;;;;;;-141.97;62.90;47584.44;4991520;28;20230;-82
2023/09/20 05:54:22;;;;;;;29.17;15.43;;;;;;;-141.97;62.66;47605.56;4991825;28;20189;-82
2023/09/20 05:56:48;;;;;;;25.93;14.57;;;;;;;-141.97;62.67;47522.91;4997401;28;20167;-82
2023/09/20 05:59:14;;;;;;;26.33;14.43;;;;;;;-141.97;62.01;47549.84;5022773;28;20171;-81
2023/09/20 06:01:40;;;;;;;31.33;14.57;;;;;;;-141.97;61.25;47484.47;4994656;28;20172;-82
2023/09/20 06:04:09;;;;;;;24.63;14.27;;;;;;;-141.97;60.74;47549.84;4991815;28;20263;-81
2023/09/20 06:06:36;;;;;;;23.10;13.23;;;;;;;-141.97;60.04;47526.75;4992210;28;20709;-82
2023/09/20 06:09:01;;;;;;;25.27;13.93;;;;;;;-141.97;59.56;47636.31;4992119;28;20177;-82
2023/09/20 06:11:26;;;;;;;26.13;15.67;;;;;;;-141.97;59.71;47559.44;4991069;28;20739;-82
2023/09/20 06:13:52;;;;;;;33.00;17.20;;;;;;;-141.97;59.95;47553.69;5023204;28;20199;-82
2023/09/20 06:16:17;;;;;;;35.47;17.50;;;;;;;-141.97;59.35;47628.63;4992241;28;20777;-82
2023/09/20 06:18:44;;;;;;;23.97;14.07;;;;;;;-141.97;59.60;47534.44;5001418;28;20698;-81
2023/09/20 06:21:09;;;;;;;22.93;12.07;;;;;;;-141.97;59.86;47517.16;5000317;28;20248;-83
2023/09/20 06:23:35;;;;;;;20.43;12.33;;;;;;;-141.97;59.76;47561.38;4993644;28;20199;-82
2023/09/20 06:26:04;;;;;;;21.67;11.80;;;;;;;-141.97;59.85;47743.97;4997622;28;20269;-81
2023/09/20 06:28:31;;;;;;;24.57;12.33;;;;;;;-141.97;60.53;47355.72;4995517;28;20545;-82
2023/09/20 06:30:57;;;;;;;23.03;13.00;;;;;;;-141.97;59.24;47484.47;4992244;28;20183;-81
2023/09/20 06:33:23;;;;;;;21.33;11.53;;;;;;;-141.97;58.41;47496.00;4992023;28;20186;-81
2023/09/20 06:35:50;;;;;;;21.57;12.10;;;;;;;-141.97;57.51;47563.28;4991184;28;20171;-82
2023/09/20 06:38:15;;;;;;;19.30;11.43;;;;;;;-141.97;56.84;47745.88;4990403;28;20237;-81
2023/09/20 06:40:41;;;;;;;25.63;11.73;;;;;;;-141.97;57.89;47507.53;4991390;28;20250;-81
2023/09/20 06:43:07;;;;;;;20.57;11.63;;;;;;;-141.97;57.36;47530.59;4990899;28;20199;-82
2023/09/20 06:45:33;;;;;;;20.17;11.30;;;;;;;-141.97;56.07;47561.38;5002144;28;20224;-81
2023/09/20 06:48:00;;;;;;;20.10;11.63;;;;;;;-141.97;55.20;47561.38;5010703;28;20638;-82
2023/09/20 06:50:26;;;;;;;19.53;11.50;;;;;;;-141.97;54.89;47517.16;5010384;28;20611;-82
2023/09/20 06:52:53;;;;;;;19.90;10.87;;;;;;;-141.97;54.95;47526.75;5001172;28;20181;-81
2023/09/20 06:55:19;;;;;;;17.97;10.50;;;;;;;-141.97;54.57;47578.66;4995637;28;20243;-82
2023/09/20 06:57:47;;;;;;;14.17;10.17;;;;;;;-141.97;54.46;47478.72;5003779;28;20219;-82
2023/09/20 07:00:24;;;;;;;18.97;12.30;;;;;;;-141.97;53.57;47526.75;4996277;28;20163;-82
2023/09/20 07:02:51;;;;;;;16.70;10.37;;;;;;;-141.97;53.52;47503.69;4989630;28;20497;-83
2023/09/20 07:05:17;;;;;;;15.60;10.80;;;;;;;-141.97;52.67;47513.31;4991747;28;20877;-81
2023/09/20 07:07:44;;;;;;;14.23;9.50;;;;;;;-141.97;53.79;47513.31;4990907;28;20169;-82
2023/09/20 07:10:10;;;;;;;13.43;9.23;;;;;;;-141.97;54.00;47540.22;4991238;28;20242;-82
2023/09/20 07:12:38;;;;;;;13.67;9.17;;;;;;;-141.97;53.32;47469.09;4991074;28;20682;-82
2023/09/20 07:15:06;;;;;;;14.40;9.30;;;;;;;-141.97;53.89;47657.47;5021659;28;20284;-82
2023/09/20 07:17:32;;;;;;;13.03;8.83;;;;;;;-141.97;54.01;47509.47;4995315;28;20197;-82
2023/09/20 07:19:57;;;;;;;12.23;8.73;;;;;;;-141.97;54.09;47688.22;4994651;28;20159;-81
2023/09/20 07:22:24;;;;;;;14.33;9.07;;;;;;;-141.97;53.27;47509.47;5007764;28;20244;-82
2023/09/20 07:24:54;;;;;;;14.53;8.90;;;;;;;-141.97;53.41;47428.75;5014366;28;20170;-83
2023/09/20 07:27:20;;;;;;;15.13;9.00;;;;;;;-141.97;52.70;47497.94;5003918;28;20195;-82
2023/09/20 07:29:45;;;;;;;13.57;8.53;;;;;;;-141.97;52.88;47555.59;4994525;28;20199;-82
2023/09/20 07:32:11;;;;;;;14.53;8.60;;;;;;;-141.97;52.85;47513.31;4995095;28;20254;-82
2023/09/20 07:34:36;;;;;;;14.70;8.40;;;;;;;-141.97;52.07;47467.19;4994881;28;20600;-81
2023/09/20 07:37:02;;;;;;;11.70;8.30;;;;;;;-141.97;51.33;47488.31;4994024;28;20222;-82
2023/09/20 07:39:30;;;;;;;15.67;9.17;;;;;;;-141.97;51.50;47474.88;4994406;28;20190;-82
2023/09/20 07:41:58;;;;;;;12.57;8.60;;;;;;;-141.97;52.21;47611.34;4994481;28;20174;-81
2023/09/20 07:44:24;;;;;;;13.37;8.87;;;;;;;-141.97;51.30;47478.72;4994344;28;20537;-81
2023/09/20 07:46:54;;;;;;;14.70;8.00;;;;;;;-141.97;49.64;47515.22;4994018;28;20261;-81
2023/09/20 07:49:20;;;;;;;13.40;8.33;;;;;;;-141.97;50.22;47503.69;4994676;28;20159;-81
2023/09/20 07:51:46;;;;;;;16.97;9.60;;;;;;;-141.97;50.50;47426.81;4994334;28;20171;-82
2023/09/20 07:54:14;;;;;;;12.87;9.23;;;;;;;-141.97;50.38;47409.53;4994833;28;20171;-82
2023/09/20 07:56:43;;;;;;;21.33;9.53;;;;;;;-141.97;49.45;47488.31;4994648;28;20206;-82
2023/09/20 07:59:09;;;;;;;13.73;8.93;;;;;;;-141.97;48.82;47505.63;4994858;28;20163;-83
2023/09/20 08:01:35;;;;;;;13.50;8.67;;;;;;;-141.97;48.90;47434.50;4994970;28;20160;-82
2023/09/20 08:04:00;;;;;;;13.87;9.13;;;;;;;-141.97;48.97;47497.94;4993182;28;20167;-83
2023/09/20 08:06:37;;;;;;;14.23;8.63;;;;;;;-141.97;49.03;47507.53;4995884;28;20543;-82
2023/09/20 08:09:03;;;;;;;12.80;9.67;;;;;;;-141.97;48.79;47478.72;4994202;28;20202;-82
2023/09/20 08:11:29;;;;;;;12.57;9.83;;;;;;;-141.97;47.87;47476.78;5010298;28;20333;-82
2023/09/20 08:13:57;;;;;;;16.10;9.70;;;;;;;-141.97;46.65;47440.28;5013576;28;20253;-82
2023/09/20 08:16:24;;;;;;;12.07;9.50;;;;;;;-141.97;46.09;47459.50;5012183;28;20160;-82
2023/09/20 08:21:35;;;;;;;14.50;9.55;;;;;;;-141.97;45.11;47478.72;4993587;28;20172;-82
2023/09/20 09:00:21;;;;;;;10.70;8.20;;;;;;;-141.97;39.82;47405.69;4994064;28;20247;-81
2023/09/20 09:02:57;;;;;;;10.43;8.20;;;;;;;-141.97;39.81;47419.13;4989569;28;20177;-82
2023/09/20 09:05:25;;;;;;;11.65;8.65;;;;;;;-141.97;39.84;47422.97;4993743;28;20185;-82
2023/09/20 09:07:51;;;;;;;10.52;8.07;;;;;;;-141.97;39.54;47442.19;4995587;28;20805;-82
2023/09/20 09:10:18;;;;;;;13.48;8.85;;;;;;;-141.97;39.22;47411.44;5012917;28;20247;-82
2023/09/20 09:12:43;;;;;;;11.70;9.40;;;;;;;-141.97;38.60;47357.63;5012947;28;20223;-82
2023/09/20 09:15:11;;;;;;;11.20;8.38;;;;;;;-141.97;38.36;47419.13;4996233;28;20216;-81
2023/09/20 09:17:40;;;;;;;11.65;8.15;;;;;;;-141.97;38.07;47398.00;4993015;28;21023;-82
2023/09/20 09:20:10;;;;;;;10.63;7.97;;;;;;;-141.97;37.43;47357.63;4992961;28;20174;-82
2023/09/20 09:22:39;;;;;;;11.50;7.68;;;;;;;-141.97;36.73;47336.50;4992800;28;20549;-82
2023/09/20 09:25:18;;;;;;;10.45;7.68;;;;;;;-141.97;37.74;47417.22;4992617;28;20380;-81
2023/09/20 09:27:44;;;;;;;9.23;8.30;;;;;;;-141.97;37.21;47334.56;4992795;28;20734;-82
2023/09/20 09:30:14;;;;;;;14.32;8.55;;;;;;;-141.97;37.02;47369.16;4993276;28;20170;-82
2023/09/20 09:32:41;;;;;;;11.13;8.48;;;;;;;-141.97;36.90;47403.75;5021092;28;20167;-82
2023/09/20 09:35:07;;;;;;;13.15;7.90;;;;;;;-141.97;36.55;47388.38;5002754;28;20198;-82
2023/09/20 09:37:35;;;;;;;11.45;8.50;;;;;;;-141.97;35.89;47396.06;4995045;28;20166;-82
2023/09/20 09:40:03;;;;;;;11.00;8.38;;;;;;;-141.97;35.95;47357.63;4998107;28;20182;-82
2023/09/20 09:42:28;;;;;;;11.88;7.95;;;;;;;-141.97;35.91;47338.41;5008035;28;20186;-81
2023/09/20 09:44:55;;;;;;;13.10;7.90;;;;;;;-141.97;35.73;47236.56;4984212;28;20238;-82
2023/09/20 09:47:24;;;;;;;10.57;7.88;;;;;;;-141.97;35.69;47309.59;4992671;28;20213;-82
2023/09/20 09:49:52;;;;;;;11.18;7.70;;;;;;;-141.97;35.26;47376.84;4992617;28;20166;-82
2023/09/20 09:52:23;;;;;;;9.43;7.35;;;;;;;-141.97;35.05;47394.16;4992386;28;20170;-82
2023/09/20 09:54:50;;;;;;;11.88;6.90;;;;;;;-141.97;34.45;47371.09;5023708;28;20183;-82
2023/09/20 09:57:18;;;;;;;8.77;7.38;;;;;;;-141.97;34.23;47301.91;4998864;28;20880;-85
2023/09/20 09:59:47;;;;;;;8.30;7.47;;;;;;;-141.97;34.23;47384.53;5011830;28;20173;-83
2023/09/20 10:02:17;;;;;;;9.35;7.28;;;;;;;-141.97;34.12;47388.38;5011956;28;20172;-83
2023/09/20 10:04:47;;;;;;;8.10;6.80;;;;;;;-141.97;34.88;47371.09;4998897;28;20190;-83
2023/09/20 10:07:16;;;;;;;12.23;7.07;;;;;;;-141.97;34.93;47292.28;4990436;28;20294;-83
2023/09/20 10:09:48;;;;;;;8.48;7.28;;;;;;;-141.97;33.83;47307.66;4994650;28;20198;-84
2023/09/20 10:12:15;;;;;;;10.77;8.00;;;;;;;-141.97;33.71;47342.25;4992426;28;20245;-85
2023/09/20 10:14:43;;;;;;;14.02;7.55;;;;;;;-141.97;33.63;47376.84;4992403;28;20174;-84
2023/09/20 10:17:08;;;;;;;9.27;7.60;;;;;;;-141.97;33.63;47355.72;4992615;28;20171;-83
2023/09/20 10:19:39;;;;;;;11.38;7.85;;;;;;;-141.97;33.64;47317.28;5003443;28;20181;-83
2023/09/20 10:22:09;;;;;;;9.77;7.78;;;;;;;-141.97;33.33;47207.72;5007074;28;20194;-83
2023/09/20 10:24:58;;;;;;;10.75;7.95;;;;;;;-141.97;33.11;47626.72;4997164;28;20182;-83
2023/09/20 10:27:34;;;;;;;12.25;8.07;;;;;;;-141.97;33.05;47330.72;4991882;28;20195;-84
2023/09/20 10:30:01;;;;;;;10.20;8.32;;;;;;;-141.97;33.37;47340.34;4990490;28;20167;-83
2023/09/20 10:32:34;;;;;;;10.80;8.00;;;;;;;-141.97;33.51;47292.28;4990557;28;20171;-83
2023/09/20 10:35:22;;;;;;;9.90;8.20;;;;;;;-141.97;34.08;47365.31;4991833;28;20191;-82
2023/09/20 10:38:17;;;;;;;13.23;8.63;;;;;;;-141.97;34.16;47373.00;5001090;28;20222;-81
2023/09/20 10:40:49;;;;;;;9.63;7.85;;;;;;;-141.97;34.11;47336.50;5006422;28;20179;-80
2023/09/20 10:43:25;;;;;;;14.90;7.90;;;;;;;-141.97;33.40;47336.50;5015630;28;20192;-82
2023/09/20 10:45:52;;;;;;;11.95;7.72;;;;;;;-141.97;33.32;47259.63;4998439;28;20655;-82
2023/09/20 10:48:22;;;;;;;9.10;7.65;;;;;;;-141.97;33.74;47353.78;4995573;28;20170;-81
2023/09/20 10:50:49;;;;;;;11.52;8.02;;;;;;;-141.97;33.85;47373.00;4989764;28;20310;-81
2023/09/20 10:53:19;;;;;;;12.20;8.20;;;;;;;-141.97;33.49;47367.25;5013328;28;20262;-83
2023/09/20 10:55:47;;;;;;;9.98;7.90;;;;;;;-141.97;32.84;47344.19;4997843;28;20522;-80
2023/09/20 10:58:18;;;;;;;9.85;7.38;;;;;;;-141.97;33.27;47338.41;5012147;28;20170;-81
2023/09/20 11:00:44;;;;;;;11.23;7.60;;;;;;;-141.97;32.79;47330.72;5017168;28;20163;-80
2023/09/20 11:03:11;;;;;;;11.70;7.05;;;;;;;-141.97;32.19;47369.16;5017543;28;20198;-82
2023/09/20 11:05:38;;;;;;;10.75;7.35;;;;;;;-141.97;32.08;47313.44;5000458;28;20191;-82
2023/09/20 11:08:10;;;;;;;8.15;7.20;;;;;;;-141.97;31.58;47319.19;4997335;28;20711;-82
2023/09/20 11:10:40;;;;;;;10.98;7.60;;;;;;;-141.97;31.84;47298.06;4997648;28;20159;-82
2023/09/20 11:13:10;;;;;;;8.85;7.45;;;;;;;-141.97;32.43;47313.44;4997241;28;20325;-82
2023/09/20 11:15:41;;;;;;;14.18;8.90;;;;;;;-141.97;33.39;47346.09;4997397;28;20168;-81
2023/09/20 11:18:08;;;;;;;11.23;8.38;;;;;;;-141.97;33.22;47321.13;4997401;28;20648;-80
2023/09/20 11:20:34;;;;;;;12.05;8.50;;;;;;;-141.97;33.45;47323.03;4997770;28;20546;-81
2023/09/20 11:23:01;;;;;;;11.35;7.72;;;;;;;-141.97;33.11;47324.97;4997457;28;20159;-81
2023/09/20 11:25:29;;;;;;;9.40;7.50;;;;;;;-141.97;33.04;47334.56;4997303;28;20171;-81
2023/09/20 11:27:55;;;;;;;9.02;7.57;;;;;;;-141.97;33.23;47311.50;4997729;28;20198;-83
2023/09/20 11:30:27;;;;;;;8.00;7.13;;;;;;;-141.97;32.62;47388.38;4997475;28;20190;-80
2023/09/20 11:32:53;;;;;;;8.82;7.20;;;;;;;-141.97;32.74;47357.63;4997377;28;20557;-81
2023/09/20 11:35:33;;;;;;;9.50;7.43;;;;;;;-141.97;33.16;47338.41;4997056;28;20190;-82
2023/09/20 11:37:59;;;;;;;8.88;7.03;;;;;;;-141.97;33.06;47342.25;4997128;28;20222;-82
2023/09/20 11:40:24;;;;;;;12.18;7.57;;;;;;;-141.97;33.01;47296.13;4997356;28;20167;-82
2023/09/20 11:42:52;;;;;;;8.30;7.20;;;;;;;-141.97;31.91;47340.34;4997698;28;21060;-81
2023/09/20 11:45:18;;;;;;;9.70;7.18;;;;;;;-141.97;31.66;47294.22;4995981;28;20175;-82
2023/09/20 11:47:44;;;;;;;8.20;7.30;;;;;;;-141.97;30.64;47280.75;5029152;28;20185;-81